7NC5 weather

Crooked Creek Airport
Bunn, North Carolina, United States

Public forecast

Using degrees Fahrenheit for public forecast. Weather courtesy of forecast.io.

METAR (pilot weather report)

Closest report is Triangle North Executive Airport, 6.7 nm (12.5 km) NW. Retrieved 2019/08/20 08:40 UTC (16 minutes ago):

KLHZ 200840Z AUTO 00000KT 10SM CLR 21/20 A3012 RMK AO2

TAF (pilot weather forecast)

Closest forecast is Rocky Mount Wilson Regional Airport, 17.9 nm (33.1 km) ESE. Retrieved 2019/08/20 06:48 UTC (2 hours ago):

TAF KRWI 200545Z 2006/2106 00000KT P6SM BKN200 TEMPO 2008/2012 1SM BR SCT003 FM201300 23006KT P6SM BKN200 FM201600 23006KT P6SM SCT045 BKN180 FM201900 21010G15KT P6SM SCT050 SCT250 FM202300 VRB05KT P6SM SCT050 BKN120 PROB30 2100/2104 2SM TSRA BR SCT025CB OVC040